Time;durP1;ratioP1;P1;durP2;ratioP2;P2;SDS_P1;SDS_P2;PMS_P1;PMS_P2;Temp;Humidity;BMP_temperature;BMP_pressure;BME280_temperature;BME280_humidity;BME280_pressure;Samples;Min_cycle;Max_cycle;Signal;HPM_P1;HPM_P2
2022/09/14 00:01:19;;;;;;;11.70;3.30;;;;;;;23.88;74.20;100017.97;5011609;28;20418;-63
2022/09/14 00:03:55;;;;;;;10.35;3.05;;;;;;;23.88;74.54;100001.91;4980362;28;20062;-63
2022/09/14 00:06:23;;;;;;;10.60;3.20;;;;;;;23.93;74.21;100004.25;4998120;28;20046;-63
2022/09/14 00:08:51;;;;;;;6.97;2.50;;;;;;;23.86;74.44;100001.50;4998223;28;20301;-63
2022/09/14 00:11:21;;;;;;;8.95;3.50;;;;;;;23.68;75.37;100000.91;4997007;28;20057;-64
2022/09/14 00:13:49;;;;;;;11.80;2.90;;;;;;;23.69;75.48;99996.09;4997605;28;20495;-63
2022/09/14 00:16:19;;;;;;;9.60;3.67;;;;;;;23.75;75.36;99995.19;4997280;28;20054;-63
2022/09/14 00:18:57;;;;;;;6.35;2.67;;;;;;;23.74;75.60;99988.00;4998426;28;20067;-64
2022/09/14 00:21:26;;;;;;;9.05;3.45;;;;;;;23.76;75.44;99985.56;4995652;28;20065;-63
2022/09/14 00:23:53;;;;;;;11.52;3.47;;;;;;;23.74;75.52;99979.56;4996842;28;20046;-64
2022/09/14 00:26:21;;;;;;;8.02;2.83;;;;;;;23.71;76.29;99988.81;4998021;28;20046;-63
2022/09/14 00:28:54;;;;;;;9.20;2.60;;;;;;;23.69;76.36;99982.84;4979985;28;20461;-64
2022/09/14 00:31:22;;;;;;;9.73;3.40;;;;;;;23.69;76.71;99970.78;5029091;28;20057;-64
2022/09/14 00:33:50;;;;;;;12.98;3.92;;;;;;;23.64;77.14;99960.78;4997960;28;20532;-63
2022/09/14 00:36:26;;;;;;;7.13;3.30;;;;;;;23.65;77.30;99956.75;4997377;28;20050;-64
2022/09/14 00:38:55;;;;;;;9.07;3.25;;;;;;;23.54;77.74;99953.28;4997920;28;20069;-63
2022/09/14 00:41:26;;;;;;;8.30;3.17;;;;;;;23.50;78.64;99946.91;4995450;28;20050;-63
2022/09/14 00:44:05;;;;;;;8.35;3.22;;;;;;;23.36;78.63;99942.22;4996823;28;20309;-63
2022/09/14 00:46:45;;;;;;;10.32;3.35;;;;;;;23.47;78.71;99935.69;4996153;28;20046;-63
2022/09/14 00:49:33;;;;;;;11.15;3.33;;;;;;;23.45;78.84;99935.31;4997782;28;20057;-63
2022/09/14 00:52:21;;;;;;;13.25;3.08;;;;;;;23.46;78.42;99923.66;4992868;28;20070;-63
2022/09/14 00:54:57;;;;;;;8.18;2.85;;;;;;;23.40;78.81;99917.69;4997587;28;20058;-63
2022/09/14 00:57:26;;;;;;;7.70;3.00;;;;;;;23.41;78.84;99922.09;4995084;28;20050;-63
2022/09/14 00:59:54;;;;;;;8.30;3.83;;;;;;;23.48;78.14;99917.59;4996190;28;20057;-64
2022/09/14 01:02:23;;;;;;;7.38;3.20;;;;;;;23.33;79.16;99906.53;4995910;28;20050;-63
2022/09/14 01:04:50;;;;;;;11.27;3.08;;;;;;;23.30;79.19;99904.56;4978815;28;20077;-63
2022/09/14 01:07:21;;;;;;;10.20;3.30;;;;;;;23.32;79.40;99904.13;4995818;28;20042;-63
2022/09/14 01:09:54;;;;;;;12.68;3.03;;;;;;;23.33;79.31;99897.28;4995789;28;20050;-63
2022/09/14 01:12:45;;;;;;;10.30;3.30;;;;;;;23.42;78.98;99887.16;5010376;28;20046;-63
2022/09/14 01:15:31;;;;;;;8.23;3.28;;;;;;;23.22;79.79;99894.56;4997344;28;20398;-63
2022/09/14 01:18:14;;;;;;;12.80;3.55;;;;;;;23.25;79.49;99890.94;4981232;28;20585;-64
2022/09/14 01:20:53;;;;;;;11.60;3.47;;;;;;;23.35;79.31;99892.84;4995400;28;20065;-64
2022/09/14 01:23:42;;;;;;;9.00;2.87;;;;;;;23.32;79.38;99882.47;4996476;28;20058;-64
2022/09/14 01:26:31;;;;;;;7.93;2.90;;;;;;;23.29;79.31;99874.84;4996000;28;20625;-63
2022/09/14 01:29:40;;;;;;;6.85;2.70;;;;;;;23.25;79.43;99878.91;4997008;28;20066;-64
2022/09/14 01:32:19;;;;;;;6.55;3.00;;;;;;;23.27;79.58;99879.28;4998976;28;20054;-64
2022/09/14 01:35:11;;;;;;;7.40;2.65;;;;;;;23.23;79.71;99879.31;4985431;28;20057;-64
2022/09/14 01:37:49;;;;;;;9.50;2.70;;;;;;;23.19;79.79;99881.38;4983261;28;20058;-64
2022/09/14 01:40:36;;;;;;;9.07;3.10;;;;;;;23.16;80.11;99873.78;4995367;28;20046;-64
2022/09/14 01:43:09;;;;;;;9.90;2.55;;;;;;;23.13;80.40;99890.69;4994846;28;20042;-64
2022/09/14 01:45:49;;;;;;;9.85;3.22;;;;;;;23.17;79.99;99892.22;4995031;28;20065;-64
2022/09/14 01:48:21;;;;;;;7.72;3.08;;;;;;;23.25;79.62;99904.19;4993447;28;20053;-64
2022/09/14 01:50:55;;;;;;;9.45;2.67;;;;;;;23.37;79.01;99904.47;4975306;28;20053;-64
2022/09/14 01:53:36;;;;;;;8.60;2.83;;;;;;;23.31;79.31;99900.53;4995046;28;20046;-65
2022/09/14 01:56:14;;;;;;;8.82;2.78;;;;;;;23.18;79.79;99899.44;4995157;28;20057;-64
2022/09/14 01:58:56;;;;;;;8.18;3.00;;;;;;;23.16;79.92;99884.22;4996270;28;20243;-64
2022/09/14 02:01:36;;;;;;;15.27;3.30;;;;;;;23.24;79.50;99868.88;4995019;28;20050;-64
2022/09/14 02:04:07;;;;;;;9.32;2.75;;;;;;;23.12;79.79;99861.78;4995875;28;20430;-64
2022/09/14 02:06:38;;;;;;;9.77;2.80;;;;;;;23.18;79.42;99862.13;4993885;28;20057;-64
2022/09/14 02:09:09;;;;;;;9.18;2.45;;;;;;;23.14;79.52;99872.59;4995488;28;20050;-64
2022/09/14 02:11:37;;;;;;;8.75;2.90;;;;;;;23.12;79.42;99873.00;4994972;28;20061;-63
2022/09/14 02:14:04;;;;;;;8.63;2.70;;;;;;;22.97;79.62;99865.97;4993747;28;20061;-63
2022/09/14 02:16:33;;;;;;;6.25;2.30;;;;;;;23.03;79.79;99861.47;4994923;28;20053;-63
2022/09/14 02:19:01;;;;;;;7.85;2.50;;;;;;;23.07;80.15;99867.03;4994777;28;20054;-63
2022/09/14 02:21:30;;;;;;;8.88;2.72;;;;;;;22.94;80.00;99871.63;4993474;28;20046;-63
2022/09/14 02:23:59;;;;;;;11.52;2.55;;;;;;;23.12;79.57;99877.81;5011502;28;20046;-63
2022/09/14 02:26:27;;;;;;;7.55;2.70;;;;;;;23.09;79.55;99879.47;4996025;28;20081;-63
2022/09/14 02:28:55;;;;;;;6.80;2.38;;;;;;;23.07;79.26;99890.31;4996079;28;20422;-64
2022/09/14 02:31:47;;;;;;;7.55;3.00;;;;;;;23.10;78.81;99880.28;4994610;28;20066;-63
2022/09/14 02:34:47;;;;;;;5.93;2.55;;;;;;;23.22;78.26;99894.56;4994186;28;20046;-64
2022/09/14 02:37:20;;;;;;;9.30;2.60;;;;;;;23.12;78.72;99889.88;4954523;28;20058;-64
2022/09/14 02:40:06;;;;;;;7.05;2.58;;;;;;;23.15;78.15;99891.06;4978446;28;20058;-63
2022/09/14 02:42:52;;;;;;;10.82;2.70;;;;;;;23.14;78.05;99889.44;5010949;28;20045;-63
2022/09/14 02:45:32;;;;;;;9.95;2.25;;;;;;;23.13;77.72;99890.69;4985843;28;20057;-63
2022/09/14 02:48:05;;;;;;;9.27;2.55;;;;;;;23.19;77.73;99903.84;4996334;28;20054;-64
2022/09/14 02:50:32;;;;;;;8.10;2.42;;;;;;;23.18;77.81;99902.25;4992399;28;20054;-64
2022/09/14 02:53:11;;;;;;;8.27;2.33;;;;;;;23.17;77.54;99895.03;4996106;28;20042;-63
2022/09/14 02:55:45;;;;;;;7.55;2.50;;;;;;;23.14;78.31;99895.06;4994383;28;20054;-63
2022/09/14 02:58:13;;;;;;;6.50;2.20;;;;;;;23.15;78.24;99896.69;4994973;28;20046;-64
2022/09/14 03:00:44;;;;;;;8.35;2.25;;;;;;;23.23;77.63;99887.75;4994229;28;20065;-63
2022/09/14 03:03:14;;;;;;;6.50;2.30;;;;;;;23.12;77.36;99889.88;4994958;28;20046;-64
2022/09/14 03:05:41;;;;;;;7.18;2.47;;;;;;;23.20;77.40;99887.78;4998194;28;20046;-64
2022/09/14 03:08:09;;;;;;;8.77;2.42;;;;;;;23.13;77.12;99888.66;5000094;28;20050;-64
2022/09/14 03:10:37;;;;;;;9.32;2.22;;;;;;;23.14;77.90;99898.69;4996905;28;20054;-64
2022/09/14 03:13:04;;;;;;;7.75;2.33;;;;;;;23.16;78.20;99890.63;4999926;28;20050;-64
2022/09/14 03:15:32;;;;;;;7.47;2.38;;;;;;;23.07;78.16;99889.53;4999563;28;20058;-64
2022/09/14 03:17:59;;;;;;;11.75;2.70;;;;;;;23.03;78.71;99886.75;4998702;28;20058;-64
2022/09/14 03:20:28;;;;;;;6.43;2.63;;;;;;;23.04;78.47;99898.78;4996592;28;20058;-64
2022/09/14 03:22:57;;;;;;;8.80;2.50;;;;;;;22.92;78.72;99888.88;4999511;28;20046;-64
2022/09/14 03:25:24;;;;;;;9.13;2.80;;;;;;;22.94;78.99;99891.28;4998161;28;20054;-64
2022/09/14 03:27:57;;;;;;;6.38;2.53;;;;;;;22.89;79.01;99892.50;4999688;28;20067;-64
2022/09/14 03:30:25;;;;;;;6.90;2.88;;;;;;;22.92;78.75;99888.09;4997861;28;20058;-63
2022/09/14 03:32:52;;;;;;;7.25;2.40;;;;;;;22.95;78.88;99888.03;4999639;28;20046;-64
2022/09/14 03:35:19;;;;;;;11.60;3.08;;;;;;;23.01;78.55;99883.56;4997805;28;20054;-63
2022/09/14 03:37:47;;;;;;;10.55;2.72;;;;;;;23.05;78.74;99875.09;4997631;28;20077;-64
2022/09/14 03:40:15;;;;;;;6.05;2.30;;;;;;;23.02;78.59;99867.50;4997324;28;20070;-64
2022/09/14 03:42:49;;;;;;;9.40;2.70;;;;;;;22.94;79.21;99868.81;4999518;28;20042;-64
2022/09/14 03:45:17;;;;;;;8.50;2.50;;;;;;;22.96;79.18;99872.00;4999109;28;20051;-65
2022/09/14 03:47:47;;;;;;;8.52;2.55;;;;;;;23.02;78.97;99881.56;4998252;28;20059;-64
2022/09/14 03:50:16;;;;;;;9.85;2.67;;;;;;;22.77;79.27;99890.22;4997371;28;20058;-64
2022/09/14 03:52:44;;;;;;;11.55;2.70;;;;;;;22.90;79.48;99893.31;5004206;28;20049;-64
2022/09/14 03:55:11;;;;;;;7.47;2.40;;;;;;;22.91;79.67;99903.34;5002383;28;20414;-63
2022/09/14 03:57:40;;;;;;;9.98;2.63;;;;;;;22.97;78.85;99899.66;5001589;28;20049;-63
2022/09/14 04:00:09;;;;;;;7.22;2.75;;;;;;;22.90;79.30;99888.50;5018509;28;20060;-64
2022/09/14 04:02:40;;;;;;;10.23;2.60;;;;;;;22.77;79.58;99881.03;4996482;28;20062;-64
2022/09/14 04:05:07;;;;;;;9.80;2.65;;;;;;;22.76;80.20;99883.03;4997715;28;20065;-63
2022/09/14 04:07:35;;;;;;;7.65;2.42;;;;;;;22.75;80.39;99869.41;4998199;28;20054;-63
2022/09/14 04:10:04;;;;;;;9.40;3.17;;;;;;;22.72;80.52;99873.81;4997288;28;20502;-64
2022/09/14 04:12:35;;;;;;;11.75;3.30;;;;;;;22.78;80.43;99871.38;4997990;28;20414;-63
2022/09/14 04:15:04;;;;;;;6.90;2.53;;;;;;;22.67;81.05;99873.47;4997869;28;20047;-63
2022/09/14 04:17:32;;;;;;;8.80;2.85;;;;;;;22.94;79.63;99863.19;4997189;28;20521;-63
2022/09/14 04:19:59;;;;;;;8.32;2.50;;;;;;;22.66;80.17;99871.88;4997071;28;20054;-64
2022/09/14 04:22:26;;;;;;;9.65;2.72;;;;;;;22.77;80.60;99862.13;4997929;28;20042;-63
2022/09/14 04:24:54;;;;;;;10.82;2.70;;;;;;;22.81;80.10;99865.72;4996291;28;20062;-63
2022/09/14 04:27:22;;;;;;;8.52;2.80;;;;;;;22.84;80.19;99864.88;4996334;28;20054;-63
2022/09/14 04:29:49;;;;;;;10.27;2.83;;;;;;;22.76;79.79;99856.94;4998798;28;20042;-64
2022/09/14 04:32:16;;;;;;;7.72;2.60;;;;;;;22.81;79.86;99850.88;4997255;28;20069;-63
2022/09/14 04:34:44;;;;;;;11.27;3.10;;;;;;;22.75;80.12;99864.56;5012883;28;20069;-63
2022/09/14 04:37:11;;;;;;;10.52;2.72;;;;;;;22.89;79.45;99855.22;4997955;28;20058;-64
2022/09/14 04:39:38;;;;;;;11.02;3.30;;;;;;;22.71;80.07;99858.19;4998252;28;20368;-63
2022/09/14 04:42:06;;;;;;;9.18;2.55;;;;;;;22.71;80.00;99854.59;4998097;28;20047;-63
2022/09/14 04:44:33;;;;;;;7.88;2.58;;;;;;;22.64;80.69;99858.28;4998005;28;20485;-63
2022/09/14 04:47:00;;;;;;;8.27;2.83;;;;;;;22.77;79.97;99864.16;4996913;28;20541;-63
2022/09/14 04:49:28;;;;;;;9.73;2.83;;;;;;;22.71;80.33;99865.81;4998050;28;20050;-63
2022/09/14 04:51:55;;;;;;;8.82;2.72;;;;;;;22.72;79.70;99864.59;4997794;28;20046;-65
2022/09/14 04:54:22;;;;;;;9.80;2.90;;;;;;;22.75;80.24;99852.56;4997745;28;20046;-63
2022/09/14 04:56:49;;;;;;;6.88;3.10;;;;;;;22.82;80.22;99853.25;4997812;28;20051;-64
2022/09/14 04:59:17;;;;;;;9.63;2.53;;;;;;;22.77;80.02;99839.69;4998357;28;20057;-64
2022/09/14 05:01:46;;;;;;;10.60;2.75;;;;;;;22.77;80.20;99839.69;4994352;28;20054;-64
2022/09/14 05:04:14;;;;;;;12.02;3.40;;;;;;;22.53;80.75;99846.31;4995819;28;20057;-64
2022/09/14 05:06:43;;;;;;;7.47;2.45;;;;;;;22.45;80.85;99839.16;4995919;28;20050;-63
2022/09/14 05:09:15;;;;;;;7.40;2.53;;;;;;;22.40;82.69;99831.19;4995621;28;20062;-66
2022/09/14 05:11:43;;;;;;;13.57;3.17;;;;;;;22.51;82.14;99831.88;4997523;28;20075;-64
2022/09/14 05:14:12;;;;;;;9.18;2.70;;;;;;;22.47;82.46;99830.31;4996450;28;20058;-64
2022/09/14 05:16:40;;;;;;;10.43;3.45;;;;;;;22.31;82.41;99817.66;4996055;28;20046;-64
2022/09/14 05:19:11;;;;;;;11.57;3.22;;;;;;;22.26;82.98;99820.09;4996263;28;20058;-64
2022/09/14 05:21:38;;;;;;;6.85;2.92;;;;;;;22.18;83.78;99810.94;4995856;28;20545;-65
2022/09/14 05:24:13;;;;;;;7.05;2.92;;;;;;;22.33;83.71;99820.81;4997561;28;20057;-63
2022/09/14 05:26:42;;;;;;;9.18;2.70;;;;;;;22.31;82.92;99816.84;4996645;28;20054;-63
2022/09/14 05:29:15;;;;;;;7.90;3.10;;;;;;;22.42;83.16;99820.31;4996370;28;20056;-63
2022/09/14 05:31:44;;;;;;;8.68;3.10;;;;;;;22.31;83.29;99816.84;4996155;28;20058;-63
2022/09/14 05:34:12;;;;;;;9.68;2.67;;;;;;;22.45;82.92;99818.72;4996076;28;20057;-63
2022/09/14 05:36:39;;;;;;;8.02;3.63;;;;;;;22.40;83.24;99819.97;4994134;28;20042;-63
2022/09/14 05:39:07;;;;;;;10.10;3.00;;;;;;;22.45;83.30;99822.31;4997471;28;20058;-65
2022/09/14 05:41:35;;;;;;;8.60;3.20;;;;;;;22.51;83.04;99819.88;4996814;28;20055;-64
2022/09/14 05:44:03;;;;;;;7.15;3.15;;;;;;;22.44;83.09;99822.75;4997338;28;20046;-63
2022/09/14 05:46:30;;;;;;;9.65;3.78;;;;;;;22.42;82.49;99831.56;4996938;28;20169;-64
2022/09/14 05:48:57;;;;;;;14.98;3.55;;;;;;;22.38;83.25;99842.03;4995942;28;20050;-64
2022/09/14 05:51:26;;;;;;;12.55;3.38;;;;;;;22.50;83.20;99849.94;4994655;28;20054;-65
2022/09/14 05:53:55;;;;;;;8.40;3.13;;;;;;;22.57;83.20;99849.09;4998860;28;20061;-64
2022/09/14 05:56:25;;;;;;;11.13;3.28;;;;;;;22.55;82.96;99860.75;4996255;28;20099;-64
2022/09/14 05:58:53;;;;;;;9.95;3.38;;;;;;;22.48;82.83;99855.16;4996948;28;20134;-64
2022/09/14 06:01:26;;;;;;;14.40;3.65;;;;;;;22.52;83.03;99857.94;4994904;28;20054;-64
2022/09/14 06:03:55;;;;;;;15.82;6.22;;;;;;;22.51;83.36;99859.16;4979696;28;20046;-65
2022/09/14 06:06:22;;;;;;;10.70;3.85;;;;;;;22.55;82.53;99857.94;4994944;28;20402;-64
2022/09/14 06:08:53;;;;;;;12.88;3.35;;;;;;;22.51;82.57;99847.94;4995384;28;20062;-65
2022/09/14 06:11:27;;;;;;;13.75;3.92;;;;;;;22.52;82.79;99847.53;4993173;28;20058;-65
2022/09/14 06:13:55;;;;;;;10.13;3.15;;;;;;;22.54;83.26;99849.91;4978686;28;20054;-63
2022/09/14 06:16:24;;;;;;;9.73;3.53;;;;;;;22.54;83.21;99852.72;4992775;28;20050;-64
2022/09/14 06:18:53;;;;;;;11.90;3.72;;;;;;;22.48;83.37;99857.16;4995110;28;20065;-65
2022/09/14 06:21:22;;;;;;;14.27;3.70;;;;;;;22.57;83.48;99852.72;5025847;28;20042;-65
2022/09/14 06:23:50;;;;;;;10.95;3.65;;;;;;;22.68;84.11;99859.03;4994193;28;20131;-64
2022/09/14 06:26:19;;;;;;;11.45;4.15;;;;;;;22.66;84.20;99855.03;4993247;28;20057;-64
2022/09/14 06:28:46;;;;;;;18.38;7.50;;;;;;;22.73;84.72;99852.97;4988490;28;20050;-65
2022/09/14 06:31:16;;;;;;;31.13;13.05;;;;;;;22.79;83.63;99847.69;4990955;28;20387;-64
2022/09/14 06:33:45;;;;;;;15.80;6.03;;;;;;;22.69;83.89;99840.16;4990413;28;20058;-65
2022/09/14 06:36:20;;;;;;;13.07;4.38;;;;;;;22.73;83.67;99843.75;5019267;28;20406;-65
2022/09/14 06:38:48;;;;;;;13.32;4.22;;;;;;;22.71;84.27;99851.78;4996920;28;20053;-65
2022/09/14 06:41:19;;;;;;;10.63;4.38;;;;;;;22.77;84.37;99845.28;4988966;28;20046;-66
2022/09/14 06:43:47;;;;;;;14.90;4.70;;;;;;;22.77;83.69;99848.09;4990220;28;20042;-66
2022/09/14 06:46:20;;;;;;;11.98;4.40;;;;;;;22.75;83.89;99852.56;4988055;28;20061;-67
2022/09/14 06:48:54;;;;;;;12.00;4.20;;;;;;;22.70;84.31;99861.44;4994371;28;20514;-66
2022/09/14 06:51:36;;;;;;;12.00;4.35;;;;;;;22.78;84.42;99862.94;4991402;28;20042;-66
2022/09/14 06:54:04;;;;;;;11.82;4.55;;;;;;;22.82;84.67;99866.53;4992323;28;20050;-65
2022/09/14 06:56:33;;;;;;;12.70;4.80;;;;;;;22.58;83.72;99873.94;4992329;28;20152;-65
2022/09/14 06:59:01;;;;;;;12.82;5.10;;;;;;;22.70;83.71;99875.47;4976617;28;20038;-66
2022/09/14 07:01:28;;;;;;;10.95;4.70;;;;;;;22.89;82.59;99870.03;4990160;28;20061;-66
2022/09/14 07:03:57;;;;;;;14.35;4.20;;;;;;;22.80;83.16;99874.56;4990387;28;20533;-68
2022/09/14 07:06:32;;;;;;;21.10;4.68;;;;;;;22.90;82.90;99870.84;4974392;28;20061;-66
2022/09/14 07:09:02;;;;;;;13.75;6.00;;;;;;;23.03;82.06;99864.28;4988581;28;20532;-66
2022/09/14 07:11:30;;;;;;;12.63;5.35;;;;;;;23.17;81.61;99866.94;4987671;28;20042;-66
2022/09/14 07:13:58;;;;;;;12.60;4.30;;;;;;;23.10;81.79;99867.00;4988955;28;20043;-67
2022/09/14 07:16:27;;;;;;;9.40;3.63;;;;;;;23.25;80.83;99868.47;4991452;28;20152;-65
2022/09/14 07:18:56;;;;;;;11.63;3.45;;;;;;;23.36;79.97;99865.56;4980850;28;20073;-66
2022/09/14 07:21:24;;;;;;;17.83;4.13;;;;;;;23.35;80.39;99861.13;4989319;28;20081;-66
2022/09/14 07:23:52;;;;;;;12.82;4.85;;;;;;;23.52;79.39;99862.16;4996993;28;20051;-66
2022/09/14 07:26:25;;;;;;;19.27;4.93;;;;;;;23.28;79.84;99864.03;4988165;28;20062;-67
2022/09/14 07:28:58;;;;;;;17.10;6.30;;;;;;;23.32;80.25;99864.78;5006143;28;20050;-67
2022/09/14 07:31:29;;;;;;;15.20;4.38;;;;;;;23.54;79.00;99865.34;4974598;28;20054;-67
2022/09/14 07:33:59;;;;;;;14.85;4.28;;;;;;;23.64;78.77;99875.63;4992669;28;20050;-67
2022/09/14 07:36:26;;;;;;;19.58;4.80;;;;;;;23.65;78.23;99872.41;4990467;28;20513;-66
2022/09/14 07:39:00;;;;;;;12.48;4.15;;;;;;;23.74;77.65;99867.06;4989242;28;20042;-67
2022/09/14 07:41:29;;;;;;;13.63;4.10;;;;;;;23.63;77.88;99874.84;4975320;28;20042;-67
2022/09/14 07:43:59;;;;;;;15.90;4.50;;;;;;;23.52;78.69;99879.78;4994785;28;20073;-67
2022/09/14 07:46:28;;;;;;;15.00;6.03;;;;;;;23.66;78.16;99876.78;4997747;28;20057;-70
2022/09/14 07:48:57;;;;;;;14.00;7.75;;;;;;;23.70;77.97;99882.38;5000924;28;20425;-70
2022/09/14 07:51:25;;;;;;;15.68;6.75;;;;;;;23.71;77.57;99884.75;4977942;28;20061;-72
2022/09/14 07:53:53;;;;;;;10.65;3.28;;;;;;;23.83;75.81;99884.22;4992375;28;20586;-71
2022/09/14 07:56:20;;;;;;;15.10;5.53;;;;;;;23.87;75.45;99895.44;4995622;28;20038;-70
2022/09/14 07:58:48;;;;;;;11.05;3.35;;;;;;;24.02;74.33;99896.84;4997170;28;20058;-71
2022/09/14 08:01:21;;;;;;;8.68;3.03;;;;;;;24.07;73.51;99905.59;5012503;28;20046;-69
2022/09/14 08:03:49;;;;;;;21.38;4.28;;;;;;;24.12;74.02;99910.75;5026624;28;20054;-70
2022/09/14 08:06:20;;;;;;;26.00;4.35;;;;;;;24.23;73.30;99905.75;4996229;28;20050;-70
2022/09/14 08:08:52;;;;;;;38.95;5.60;;;;;;;24.04;74.57;99906.44;4997295;28;20057;-71
2022/09/14 08:11:29;;;;;;;23.67;5.00;;;;;;;24.18;73.62;99908.28;5027196;28;20054;-72
2022/09/14 08:14:14;;;;;;;26.30;6.30;;;;;;;24.39;72.46;99910.75;4993303;28;20058;-71
2022/09/14 08:16:45;;;;;;;20.45;3.97;;;;;;;24.26;73.18;99921.00;4994737;28;20042;-72
2022/09/14 08:19:16;;;;;;;14.75;4.32;;;;;;;24.12;74.17;99924.03;4993196;28;20061;-70
2022/09/14 08:21:44;;;;;;;14.43;3.85;;;;;;;24.28;73.57;99927.00;4993434;28;20065;-70
2022/09/14 08:24:16;;;;;;;18.35;4.50;;;;;;;24.43;73.03;99934.00;4997145;28;20049;-72
2022/09/14 08:26:43;;;;;;;10.07;3.15;;;;;;;24.25;73.74;99941.94;4991100;28;20069;-72
2022/09/14 08:29:15;;;;;;;20.35;5.88;;;;;;;24.43;73.31;99943.25;4990931;28;20387;-69
2022/09/14 08:31:45;;;;;;;21.25;7.75;;;;;;;24.47;73.41;99941.19;4990042;28;20049;-71
2022/09/14 08:34:14;;;;;;;45.42;15.10;;;;;;;24.49;73.40;99933.13;4991949;28;20134;-67
2022/09/14 08:36:42;;;;;;;16.58;5.03;;;;;;;24.37;73.79;99941.34;4992443;28;20039;-67
2022/09/14 08:39:11;;;;;;;16.00;5.50;;;;;;;24.43;73.71;99937.63;4997771;28;20419;-67
2022/09/14 08:41:44;;;;;;;15.38;5.18;;;;;;;24.50;73.03;99937.53;5009617;28;20046;-68
2022/09/14 08:44:32;;;;;;;18.10;5.18;;;;;;;24.50;73.38;99947.97;4994190;28;20051;-68
2022/09/14 08:47:02;;;;;;;12.77;3.75;;;;;;;24.37;74.17;99944.94;4992562;28;20042;-67
2022/09/14 08:49:36;;;;;;;;;;;;;;;24.31;73.82;99951.47;4993698;28;20046;-68
2022/09/14 08:52:04;;;;;;;11.65;3.63;;;;;;;24.19;74.23;99952.06;4994349;28;19929;-68
2022/09/14 08:54:36;;;;;;;15.63;3.90;;;;;;;24.37;73.74;99950.56;4994489;28;20035;-68
2022/09/14 08:57:15;;;;;;;22.92;4.50;;;;;;;24.52;73.26;99959.63;4993048;28;20162;-68
2022/09/14 08:59:51;;;;;;;26.48;9.77;;;;;;;24.49;73.47;99960.47;5020187;28;20053;-68
2022/09/14 09:02:43;;;;;;;20.83;5.85;;;;;;;24.55;73.34;99958.75;4992045;28;20049;-68
2022/09/14 09:05:19;;;;;;;16.40;4.40;;;;;;;24.63;72.88;99954.63;4991086;28;20062;-68
2022/09/14 09:07:53;;;;;;;22.27;4.50;;;;;;;24.46;73.40;99950.06;4990184;28;20061;-69
2022/09/14 09:10:20;;;;;;;17.55;4.78;;;;;;;24.48;73.19;99951.22;5016854;28;20051;-70
2022/09/14 09:12:52;;;;;;;34.15;6.88;;;;;;;24.48;72.87;99951.22;4990872;28;20054;-69
2022/09/14 09:15:23;;;;;;;20.48;5.07;;;;;;;24.59;72.78;99962.31;4989758;28;20437;-69
2022/09/14 09:18:08;;;;;;;14.45;4.47;;;;;;;24.65;72.54;99963.44;4990882;28;20054;-70
2022/09/14 09:20:43;;;;;;;20.88;4.43;;;;;;;24.85;71.41;99953.06;4995360;28;20077;-68
2022/09/14 09:23:15;;;;;;;11.57;3.38;;;;;;;24.78;70.98;99953.19;4996295;28;20052;-68
2022/09/14 09:26:05;;;;;;;30.52;5.45;;;;;;;24.80;70.20;99956.38;4993714;28;20053;-69
2022/09/14 09:28:33;;;;;;;24.75;5.07;;;;;;;24.86;70.17;99959.50;4994424;28;20498;-70
2022/09/14 09:31:04;;;;;;;10.95;3.70;;;;;;;24.91;70.28;99959.03;4993415;28;20062;-70
2022/09/14 09:33:51;;;;;;;18.88;5.88;;;;;;;24.96;69.56;99955.72;4995982;28;20506;-71
2022/09/14 09:36:22;;;;;;;15.25;5.57;;;;;;;24.96;69.32;99952.88;4976253;28;20050;-71
2022/09/14 09:38:49;;;;;;;15.25;4.35;;;;;;;25.14;68.34;99944.94;5008976;28;20057;-70
2022/09/14 09:41:25;;;;;;;14.40;4.22;;;;;;;25.09;67.14;99951.06;5009977;28;20501;-70
2022/09/14 09:44:00;;;;;;;13.35;4.68;;;;;;;25.06;67.49;99949.09;4981354;28;20059;-69
2022/09/14 09:46:33;;;;;;;11.10;3.33;;;;;;;25.02;67.48;99957.59;4993650;28;20046;-71
2022/09/14 09:49:21;;;;;;;14.63;5.13;;;;;;;25.16;65.67;99950.91;4996235;28;20053;-70
2022/09/14 09:51:49;;;;;;;11.00;4.38;;;;;;;25.12;64.74;99950.97;5000650;28;20065;-70
2022/09/14 09:54:28;;;;;;;13.13;4.63;;;;;;;25.16;64.32;99951.72;4993889;28;20065;-69
2022/09/14 09:57:04;;;;;;;9.52;3.33;;;;;;;25.09;65.04;99949.03;5004192;28;20046;-68
2022/09/14 09:59:34;;;;;;;50.05;6.38;;;;;;;25.10;63.17;99947.00;4995594;28;20053;-69
2022/09/14 10:02:23;;;;;;;27.77;4.95;;;;;;;25.11;61.35;99946.56;4997098;28;20060;-70
2022/09/14 10:05:21;;;;;;;59.25;7.20;;;;;;;24.91;62.83;99942.91;4992249;28;20058;-70
2022/09/14 10:07:50;;;;;;;41.65;5.68;;;;;;;25.13;63.07;99938.47;4991572;28;20056;-68
2022/09/14 10:10:21;;;;;;;33.83;6.18;;;;;;;25.39;62.75;99936.81;4982490;28;20058;-70
2022/09/14 10:12:55;;;;;;;;;;;;;;;25.30;62.41;99925.28;4992092;28;20054;-70
2022/09/14 10:15:30;;;;;;;16.98;4.15;;;;;;;25.47;62.87;99924.97;4974745;28;19922;-70
2022/09/14 10:18:10;;;;;;;22.45;4.72;;;;;;;25.54;61.69;99929.69;5001259;28;20060;-71
2022/09/14 10:20:41;;;;;;;10.25;3.15;;;;;;;25.31;61.49;99932.53;4993955;28;20065;-70
2022/09/14 10:23:17;;;;;;;16.25;3.53;;;;;;;25.34;61.68;99915.53;4991152;28;20065;-71
2022/09/14 10:25:46;;;;;;;14.30;2.58;;;;;;;25.52;60.33;99916.00;4985571;28;20093;-69
2022/09/14 10:28:27;;;;;;;13.80;3.22;;;;;;;25.30;61.45;99916.81;4991650;28;20042;-72
2022/09/14 10:31:07;;;;;;;6.35;2.90;;;;;;;25.13;61.95;99910.31;4989626;28;20041;-70
2022/09/14 10:33:34;;;;;;;7.50;2.63;;;;;;;25.53;59.86;99903.50;4982950;28;20045;-70
2022/09/14 10:36:14;;;;;;;7.10;3.05;;;;;;;25.66;60.23;99900.03;4992702;28;20045;-73
2022/09/14 10:38:51;;;;;;;16.33;7.50;;;;;;;25.40;60.30;99901.75;4993588;28;20050;-72
2022/09/14 10:41:29;;;;;;;19.20;10.27;;;;;;;25.39;60.13;99894.53;4984495;28;20522;-69
2022/09/14 10:44:21;;;;;;;13.07;4.80;;;;;;;25.18;60.69;99895.72;5016631;28;20061;-69
2022/09/14 10:47:06;;;;;;;8.93;3.72;;;;;;;25.20;60.41;99884.78;4991524;28;20050;-68
2022/09/14 10:49:52;;;;;;;12.85;5.22;;;;;;;25.53;59.65;99880.13;4987901;28;20058;-72
2022/09/14 10:52:23;;;;;;;14.30;5.43;;;;;;;25.68;58.00;99881.44;4993866;28;20054;-70
2022/09/14 10:55:06;;;;;;;9.40;3.28;;;;;;;26.08;56.60;99871.66;4990176;28;20513;-68
2022/09/14 10:57:34;;;;;;;19.15;5.90;;;;;;;25.89;57.33;99869.66;4992857;28;20050;-71
2022/09/14 11:00:13;;;;;;;47.17;26.00;;;;;;;25.83;57.63;99873.44;4995235;28;20129;-70
2022/09/14 11:02:44;;;;;;;27.02;16.45;;;;;;;25.89;57.45;99866.84;5013414;28;20046;-70
2022/09/14 11:05:21;;;;;;;20.02;12.82;;;;;;;25.77;57.07;99875.97;4992607;28;20104;-69
2022/09/14 11:08:12;;;;;;;14.18;9.93;;;;;;;25.70;57.69;99867.66;4997456;28;20049;-69
2022/09/14 11:10:50;;;;;;;18.33;11.82;;;;;;;25.91;56.86;99864.38;4997605;28;20062;-69
2022/09/14 11:13:43;;;;;;;17.00;9.13;;;;;;;25.79;56.33;99864.25;4998527;28;20052;-68
2022/09/14 11:16:39;;;;;;;27.88;16.15;;;;;;;25.92;56.25;99868.81;4996630;28;20050;-68
2022/09/14 11:19:35;;;;;;;19.08;13.10;;;;;;;26.12;54.83;99854.66;4993304;28;20797;-67
2022/09/14 11:22:45;;;;;;;15.50;7.68;;;;;;;26.43;54.18;99867.22;4981104;28;20065;-67
2022/09/14 11:25:20;;;;;;;14.40;8.52;;;;;;;26.17;54.54;99859.81;4999316;28;20057;-68
2022/09/14 11:27:56;;;;;;;7.40;4.68;;;;;;;25.70;56.59;99876.13;4978955;28;20058;-73
2022/09/14 11:30:32;;;;;;;9.57;4.43;;;;;;;25.45;56.96;99875.88;4991477;28;20085;-68
2022/09/14 11:33:08;;;;;;;8.27;3.08;;;;;;;25.66;56.25;99874.63;4981817;28;20571;-69
2022/09/14 11:35:52;;;;;;;6.43;2.22;;;;;;;25.91;55.61;99869.25;4995379;28;20061;-68
2022/09/14 11:38:21;;;;;;;8.77;2.60;;;;;;;26.16;54.86;99875.13;5002605;28;20050;-68
2022/09/14 11:40:53;;;;;;;10.45;2.40;;;;;;;26.05;56.07;99878.19;4997459;28;20065;-68
2022/09/14 11:43:35;;;;;;;13.63;3.22;;;;;;;26.33;55.18;99877.53;4982466;28;20058;-68
2022/09/14 11:46:05;;;;;;;10.48;3.92;;;;;;;26.57;54.78;99870.47;4985263;28;20046;-67
2022/09/14 11:48:38;;;;;;;13.48;3.20;;;;;;;26.63;54.42;99882.03;4992084;28;20050;-67
2022/09/14 11:51:32;;;;;;;11.30;3.72;;;;;;;26.65;54.14;99876.75;4991920;28;20051;-68
2022/09/14 11:53:59;;;;;;;11.32;2.80;;;;;;;26.71;54.04;99885.53;4975857;28;20053;-67
2022/09/14 11:56:30;;;;;;;12.02;3.40;;;;;;;26.50;54.17;99881.94;4996668;28;20049;-70